createdAt,value
2023-01-05T00:05:46.064Z,74595.09
2023-01-05T00:16:09.389Z,74564.75
2023-01-05T00:26:18.689Z,74548.56
2023-01-05T00:36:25.523Z,74532.38
2023-01-05T00:46:30.562Z,74510.13
2023-01-05T00:56:32.650Z,74483.81
2023-01-05T01:06:34.695Z,74471.66
2023-01-05T01:16:36.797Z,74455.47
2023-01-05T01:26:41.660Z,74453.47
2023-01-05T01:36:48.950Z,74451.44
2023-01-05T01:46:55.381Z,74445.38
2023-01-05T01:57:00.014Z,74429.19
2023-01-05T02:07:02.493Z,74423.13
2023-01-05T02:17:11.564Z,74398.84
2023-01-05T02:27:42.653Z,74380.63
2023-01-05T02:37:51.514Z,74372.53
2023-01-05T02:47:57.735Z,74350.28
2023-01-05T02:58:13.324Z,74334.09
2023-01-05T03:08:32.632Z,74319.94
2023-01-05T03:19:01.094Z,74295.66
2023-01-05T03:29:25.415Z,74285.53
2023-01-05T03:39:29.499Z,74277.44
2023-01-05T03:49:37.290Z,74281.50
2023-01-05T03:59:42.167Z,74293.63
2023-01-05T04:09:44.548Z,74285.53
2023-01-05T04:19:51.514Z,74293.63
2023-01-05T04:29:57.786Z,74317.91
2023-01-05T04:40:02.705Z,74330.06
2023-01-05T04:50:08.286Z,74338.16
2023-01-05T05:00:14.233Z,74342.19
2023-01-05T05:10:19.002Z,74344.22
2023-01-05T05:20:22.964Z,74342.19
2023-01-05T05:30:27.998Z,74352.31
2023-01-05T05:40:34.969Z,74370.50
2023-01-05T05:50:39.607Z,74366.47
2023-01-05T06:00:43.924Z,74376.59
2023-01-05T06:10:46.112Z,74370.50
2023-01-05T06:20:53.005Z,74378.59
2023-01-05T06:30:58.483Z,74390.75
2023-01-05T06:41:05.322Z,74378.59
2023-01-05T06:51:07.497Z,74386.69
2023-01-05T07:01:12.712Z,74394.78
2023-01-05T07:11:14.937Z,74398.84
2023-01-05T07:21:17.108Z,74398.84
2023-01-05T07:31:21.592Z,74406.94
2023-01-05T07:41:29.801Z,74382.66
2023-01-05T07:51:32.034Z,74370.50
2023-01-05T08:01:38.713Z,74370.50
2023-01-05T08:11:45.924Z,74354.31
2023-01-05T08:21:49.500Z,74358.38
2023-01-05T08:31:56.832Z,74344.22
2023-01-05T08:42:02.483Z,74364.44
2023-01-05T08:52:05.281Z,74378.59
2023-01-05T09:02:12.472Z,74394.78
2023-01-05T09:12:15.822Z,74419.06
2023-01-05T09:22:19.026Z,74431.22
2023-01-05T09:32:24.353Z,74467.63
2023-01-05T09:42:34.035Z,74467.63
2023-01-05T09:52:38.681Z,74457.50
2023-01-05T10:02:50.134Z,74451.44
2023-01-05T10:13:06.526Z,74437.28
2023-01-05T10:23:44.581Z,74402.88
2023-01-05T10:33:58.937Z,74390.75
2023-01-05T10:44:08.042Z,74382.66
2023-01-05T10:54:27.297Z,74410.97
2023-01-05T11:04:34.895Z,74392.78
2023-01-05T11:14:43.135Z,74400.88
2023-01-05T11:24:49.129Z,74388.72
2023-01-05T11:34:52.076Z,74390.75
2023-01-05T11:45:03.127Z,74408.94
2023-01-05T11:55:24.043Z,74453.47
2023-01-05T12:05:56.058Z,74479.75
2023-01-05T12:16:10.525Z,74497.97
2023-01-05T12:26:35.720Z,74489.88
2023-01-05T12:36:47.000Z,74473.69
2023-01-05T12:47:01.772Z,74465.59
2023-01-05T12:57:18.323Z,74455.47
2023-01-05T13:07:47.164Z,74455.47
2023-01-05T13:17:54.236Z,74506.06
2023-01-05T13:27:56.351Z,74540.47
2023-01-05T13:38:37.255Z,74558.66
2023-01-05T13:49:04.090Z,74587.00
2023-01-05T13:59:34.478Z,74607.22
2023-01-05T14:09:48.317Z,74617.34
2023-01-05T14:19:55.198Z,74621.38
2023-01-05T14:29:59.610Z,74615.31
2023-01-05T14:40:18.878Z,74633.53
2023-01-05T14:50:40.551Z,74653.75
2023-01-05T15:00:53.159Z,74653.75
2023-01-05T15:11:23.128Z,74641.63
2023-01-05T15:21:25.238Z,74633.53
2023-01-05T15:31:36.254Z,74629.47
2023-01-05T15:41:40.982Z,74633.53
2023-01-05T15:51:51.501Z,74657.81
2023-01-05T16:01:56.320Z,74682.09
2023-01-05T16:12:07.939Z,74710.41
2023-01-05T16:22:20.653Z,74754.94
2023-01-05T16:32:43.115Z,74793.38
2023-01-05T16:42:50.622Z,74835.84
2023-01-05T16:53:15.979Z,74866.22
2023-01-05T17:03:28.576Z,74900.59
2023-01-05T17:13:46.578Z,74930.97
2023-01-05T17:23:54.742Z,74945.13
2023-01-05T17:33:56.905Z,74989.63
2023-01-05T17:44:03.240Z,75036.19
2023-01-05T17:54:08.024Z,75068.56
2023-01-05T18:04:12.483Z,75074.63
2023-01-05T18:14:17.139Z,75084.75
2023-01-05T18:24:21.542Z,75104.97
2023-01-05T18:34:26.146Z,75119.13
2023-01-05T18:44:30.783Z,75139.38
2023-01-05T18:54:33.099Z,75173.78
2023-01-05T19:04:37.519Z,75204.13
2023-01-05T19:14:39.694Z,75240.56
2023-01-05T19:24:47.060Z,75248.66
2023-01-05T19:34:49.212Z,75293.16
2023-01-05T19:44:53.665Z,75341.72
2023-01-05T19:54:58.148Z,75390.28
2023-01-05T20:05:02.775Z,75428.75
2023-01-05T20:15:07.396Z,75455.06
2023-01-05T20:25:13.351Z,75491.47
2023-01-05T20:35:18.212Z,75521.84
2023-01-05T20:45:22.631Z,75582.53
2023-01-05T20:55:27.148Z,75614.94
2023-01-05T21:05:29.248Z,75667.53
2023-01-05T21:15:33.805Z,75708.03
2023-01-05T21:26:06.611Z,75726.22
2023-01-05T21:36:07.591Z,75758.63
2023-01-05T21:46:12.213Z,75793.03
2023-01-05T21:56:30.799Z,75829.44
2023-01-05T22:06:33.374Z,75900.28
2023-01-05T22:16:37.299Z,75936.72
2023-01-05T22:26:41.675Z,75965.03
2023-01-05T22:36:49.236Z,75989.34
2023-01-05T22:46:57.285Z,76011.59
2023-01-05T22:57:00.355Z,76041.97
2023-01-05T23:07:02.468Z,76064.22
2023-01-05T23:17:14.411Z,76094.59
2023-01-05T23:27:16.540Z,76124.94
2023-01-05T23:37:23.343Z,76153.28
2023-01-05T23:47:25.430Z,76175.53
2023-01-05T23:57:29.511Z,76207.94
